createdAt,value
2018-12-23T00:00:23.921Z,91.30
2018-12-23T00:02:54.342Z,91.50
2018-12-23T00:05:23.558Z,91.30
2018-12-23T00:07:52.673Z,91.10
2018-12-23T00:10:21.886Z,91.20
2018-12-23T00:12:53.899Z,91.10
2018-12-23T00:15:22.894Z,91.10
2018-12-23T00:17:51.914Z,91.00
2018-12-23T00:20:21.253Z,91.00
2018-12-23T00:22:50.272Z,91.00
2018-12-23T00:25:19.617Z,91.30
2018-12-23T00:27:48.650Z,91.30
2018-12-23T00:30:17.691Z,91.10
2018-12-23T00:32:46.712Z,91.20
2018-12-23T00:35:20.275Z,91.10
2018-12-23T00:37:46.756Z,91.00
2018-12-23T00:40:15.828Z,90.60
2018-12-23T00:42:44.956Z,91.10
2018-12-23T00:45:20.298Z,90.40
2018-12-23T00:47:49.302Z,90.80
2018-12-23T00:50:23.282Z,90.80
2018-12-23T00:52:52.373Z,90.70
2018-12-23T00:55:21.680Z,90.90
2018-12-23T00:57:50.913Z,91.00
2018-12-23T01:00:20.195Z,90.70
2018-12-23T01:02:49.313Z,90.90
2018-12-23T01:05:18.339Z,90.90
2018-12-23T01:07:47.497Z,90.60
2018-12-23T01:10:16.480Z,90.90
2018-12-23T01:12:45.737Z,90.90
2018-12-23T01:15:14.772Z,90.80
2018-12-23T01:17:43.812Z,91.00
2018-12-23T01:20:12.940Z,91.00
2018-12-23T01:22:48.457Z,91.10
2018-12-23T01:25:17.500Z,91.00
2018-12-23T01:27:46.802Z,91.20
2018-12-23T01:30:15.809Z,91.20
2018-12-23T01:32:44.806Z,91.00
2018-12-23T01:35:14.206Z,91.20
2018-12-23T01:37:43.500Z,91.10
2018-12-23T01:40:12.571Z,91.10
2018-12-23T01:42:41.582Z,91.30
2018-12-23T01:45:10.621Z,91.30
2018-12-23T01:47:39.796Z,91.60
2018-12-23T01:50:08.833Z,91.50
2018-12-23T01:52:37.861Z,91.60
2018-12-23T01:55:06.991Z,91.60
2018-12-23T01:57:36.281Z,91.80
2018-12-23T02:00:07.764Z,91.80
2018-12-23T02:02:36.971Z,91.70
2018-12-23T02:05:06.329Z,91.60
2018-12-23T02:07:35.385Z,91.60
2018-12-23T02:10:05.223Z,91.60
2018-12-23T02:12:34.483Z,91.90
2018-12-23T02:15:03.733Z,92.00
2018-12-23T02:17:33.205Z,91.90
2018-12-23T02:20:02.727Z,91.90
2018-12-23T02:22:32.027Z,92.00
2018-12-23T02:25:01.443Z,92.00
2018-12-23T02:27:30.551Z,92.00
2018-12-23T02:29:59.561Z,92.30
2018-12-23T02:32:28.577Z,92.10
2018-12-23T02:34:57.601Z,92.10
2018-12-23T02:37:26.903Z,92.10
2018-12-23T02:39:55.937Z,91.90
2018-12-23T02:42:25.106Z,91.80
2018-12-23T02:44:54.210Z,91.60
2018-12-23T02:47:23.245Z,91.60
2018-12-23T02:49:52.290Z,91.30
2018-12-23T02:52:21.332Z,91.20
2018-12-23T02:54:50.472Z,91.00
2018-12-23T02:57:19.468Z,90.90
2018-12-23T02:59:48.530Z,90.90
2018-12-23T03:02:17.538Z,90.70
2018-12-23T03:04:46.590Z,90.80
2018-12-23T03:07:15.641Z,90.60
2018-12-23T03:09:44.970Z,90.80
2018-12-23T03:12:14.327Z,90.90
2018-12-23T03:14:43.703Z,91.00
2018-12-23T03:17:12.711Z,91.10
2018-12-23T03:19:41.801Z,91.10
2018-12-23T03:22:10.997Z,91.10
2018-12-23T03:24:40.090Z,90.80
2018-12-23T03:27:09.123Z,91.00
2018-12-23T03:29:38.161Z,90.90
2018-12-23T03:32:07.356Z,90.80
2018-12-23T03:34:36.511Z,90.90
2018-12-23T03:37:05.555Z,90.80
2018-12-23T03:39:34.601Z,90.70
2018-12-23T03:42:03.678Z,90.60
2018-12-23T03:44:33.081Z,90.70
2018-12-23T03:47:02.131Z,90.60
2018-12-23T03:49:31.502Z,90.80
2018-12-23T03:52:00.994Z,90.70
2018-12-23T03:54:30.146Z,90.70
2018-12-23T03:56:59.225Z,90.70
2018-12-23T03:59:28.264Z,90.50
2018-12-23T04:01:57.341Z,90.70
2018-12-23T04:04:26.386Z,90.60
2018-12-23T04:06:55.546Z,90.70
2018-12-23T04:09:24.619Z,90.50
2018-12-23T04:11:53.688Z,90.50
2018-12-23T04:14:22.861Z,90.60
2018-12-23T04:16:52.181Z,90.60
2018-12-23T04:19:21.182Z,90.40
2018-12-23T04:21:50.454Z,90.40
2018-12-23T04:24:19.472Z,90.70
2018-12-23T04:26:48.530Z,90.50
2018-12-23T04:29:17.570Z,90.30
2018-12-23T04:31:46.673Z,90.50
2018-12-23T04:34:15.735Z,90.40
2018-12-23T04:36:44.717Z,90.50
2018-12-23T04:39:13.814Z,90.40
2018-12-23T04:41:42.837Z,90.30
2018-12-23T04:44:11.861Z,90.30
2018-12-23T04:46:40.915Z,90.70
2018-12-23T04:49:10.233Z,90.40
2018-12-23T04:51:39.308Z,90.30
2018-12-23T04:54:08.529Z,90.10
2018-12-23T04:56:37.575Z,90.00
2018-12-23T04:59:06.666Z,90.00
2018-12-23T05:01:35.653Z,89.80
2018-12-23T05:04:04.848Z,89.70
2018-12-23T05:06:43.079Z,89.60
2018-12-23T05:09:06.401Z,89.60
2018-12-23T05:11:35.388Z,89.50
2018-12-23T05:14:04.456Z,89.60
2018-12-23T05:16:33.767Z,89.70
2018-12-23T05:19:03.035Z,89.70
2018-12-23T05:21:32.626Z,89.90
2018-12-23T05:24:01.738Z,90.10
2018-12-23T05:26:30.772Z,90.00
2018-12-23T05:28:59.833Z,90.00
2018-12-23T05:31:28.825Z,90.00
2018-12-23T05:33:57.869Z,90.10
2018-12-23T05:36:26.939Z,90.10
2018-12-23T05:38:55.949Z,90.00
2018-12-23T05:41:25.532Z,90.10
2018-12-23T05:43:54.571Z,90.20
2018-12-23T05:46:23.596Z,90.20
2018-12-23T05:48:52.610Z,90.10
2018-12-23T05:51:21.623Z,90.10
2018-12-23T05:53:50.893Z,90.00
2018-12-23T05:56:19.892Z,90.10
2018-12-23T05:58:48.882Z,90.10
2018-12-23T06:01:18.068Z,90.10
2018-12-23T06:03:47.170Z,90.20
2018-12-23T06:06:16.172Z,90.00
2018-12-23T06:08:45.244Z,90.00
2018-12-23T06:11:14.227Z,90.10
2018-12-23T06:13:43.308Z,90.00
2018-12-23T06:16:12.446Z,89.90
2018-12-23T06:18:41.718Z,89.70
2018-12-23T06:21:11.042Z,89.80
2018-12-23T06:23:40.104Z,90.00
2018-12-23T06:26:09.306Z,90.10
2018-12-23T06:28:38.341Z,90.20
2018-12-23T06:31:07.598Z,90.00
2018-12-23T06:33:36.626Z,90.10
2018-12-23T06:36:05.665Z,90.10
2018-12-23T06:38:35.154Z,90.10
2018-12-23T06:41:04.247Z,90.30
2018-12-23T06:43:33.285Z,90.20
2018-12-23T06:46:02.427Z,90.40
2018-12-23T06:48:31.473Z,90.50
2018-12-23T06:51:00.487Z,90.70
2018-12-23T06:53:29.837Z,90.50
2018-12-23T06:55:59.065Z,90.70
2018-12-23T06:58:28.169Z,90.70
2018-12-23T07:00:57.449Z,90.80
2018-12-23T07:03:26.441Z,90.50
2018-12-23T07:05:56.987Z,90.60
2018-12-23T07:08:26.397Z,90.90
2018-12-23T07:10:55.405Z,91.00
2018-12-23T07:13:24.459Z,91.00
2018-12-23T07:15:53.523Z,90.80
2018-12-23T07:18:22.769Z,90.80
2018-12-23T07:20:52.064Z,90.70
2018-12-23T07:23:21.205Z,90.70
2018-12-23T07:25:50.303Z,90.90
2018-12-23T07:28:19.319Z,91.00
2018-12-23T07:30:48.307Z,90.90
2018-12-23T07:33:17.381Z,90.90
2018-12-23T07:35:46.657Z,90.90
2018-12-23T07:38:15.981Z,90.90
2018-12-23T07:40:45.024Z,90.90
2018-12-23T07:43:14.135Z,91.10
2018-12-23T07:45:43.179Z,91.10
2018-12-23T07:48:12.181Z,91.20
2018-12-23T07:50:41.349Z,91.30
2018-12-23T07:53:10.416Z,91.30
2018-12-23T07:55:39.515Z,91.60
2018-12-23T07:58:08.888Z,91.50
2018-12-23T08:00:38.093Z,91.80
2018-12-23T08:03:07.448Z,92.00
2018-12-23T08:05:36.474Z,91.90
2018-12-23T08:08:05.548Z,92.00
2018-12-23T08:10:34.582Z,91.90
2018-12-23T08:13:03.560Z,92.20
2018-12-23T08:15:32.714Z,92.40
2018-12-23T08:18:01.974Z,92.10
2018-12-23T08:20:31.093Z,92.30
2018-12-23T08:23:00.279Z,92.20
2018-12-23T08:25:35.535Z,91.90
2018-12-23T08:28:00.670Z,91.80
2018-12-23T08:30:29.744Z,92.00
2018-12-23T08:32:58.802Z,91.80
2018-12-23T08:35:27.847Z,91.80
2018-12-23T08:37:56.846Z,92.20
2018-12-23T08:40:26.414Z,91.80
2018-12-23T08:42:55.436Z,91.90
2018-12-23T08:45:24.562Z,91.60
2018-12-23T08:47:53.898Z,91.90
2018-12-23T08:50:23.114Z,91.40
2018-12-23T08:52:52.118Z,91.60
2018-12-23T08:55:21.152Z,91.50
2018-12-23T08:57:50.177Z,91.10
2018-12-23T09:00:20.882Z,91.30
2018-12-23T09:02:49.956Z,91.20
2018-12-23T09:05:18.981Z,91.20
2018-12-23T09:07:52.919Z,91.20
2018-12-23T09:10:19.400Z,91.10
2018-12-23T09:12:48.438Z,91.00
2018-12-23T09:15:17.519Z,91.10
2018-12-23T09:17:46.805Z,90.90
2018-12-23T09:20:16.059Z,90.70
2018-12-23T09:22:45.113Z,90.70
2018-12-23T09:25:14.186Z,90.90
2018-12-23T09:27:43.303Z,90.80
2018-12-23T09:30:12.673Z,90.50
2018-12-23T09:32:41.760Z,90.70
2018-12-23T09:35:10.762Z,90.40
2018-12-23T09:37:39.914Z,90.10
2018-12-23T09:40:08.940Z,90.10
2018-12-23T09:42:37.955Z,90.10
2018-12-23T09:45:07.561Z,90.10
2018-12-23T09:47:36.578Z,90.00
2018-12-23T09:50:05.707Z,90.00
2018-12-23T09:52:34.820Z,90.10
2018-12-23T09:55:04.398Z,90.20
2018-12-23T09:57:33.726Z,90.00
2018-12-23T10:00:03.663Z,90.00
2018-12-23T10:02:33.554Z,90.00
2018-12-23T10:05:02.991Z,89.60
2018-12-23T10:07:32.122Z,89.70
2018-12-23T10:10:01.178Z,89.50
2018-12-23T10:12:30.851Z,89.10
2018-12-23T10:14:59.850Z,88.90
2018-12-23T10:17:29.357Z,88.10
2018-12-23T10:19:58.477Z,88.50
2018-12-23T10:22:27.565Z,87.60
2018-12-23T10:24:56.845Z,86.20
2018-12-23T10:27:26.279Z,84.60
2018-12-23T10:29:55.318Z,85.10
2018-12-23T10:32:24.357Z,84.20
2018-12-23T10:34:53.565Z,84.10
2018-12-23T10:37:22.565Z,84.60
2018-12-23T10:39:51.797Z,83.20
2018-12-23T10:42:20.833Z,83.50
2018-12-23T10:44:50.127Z,84.00
2018-12-23T10:47:19.164Z,84.40
2018-12-23T10:49:48.307Z,83.90
2018-12-23T10:52:17.585Z,83.70
2018-12-23T10:54:46.717Z,84.40
2018-12-23T10:57:15.745Z,84.40
2018-12-23T10:59:44.784Z,84.40
2018-12-23T11:02:14.078Z,83.90
2018-12-23T11:04:43.623Z,84.50
2018-12-23T11:07:12.981Z,84.20
2018-12-23T11:09:42.171Z,84.10
2018-12-23T11:12:11.261Z,83.20
2018-12-23T11:14:40.819Z,83.10
2018-12-23T11:17:10.175Z,82.90
2018-12-23T11:19:39.319Z,82.10
2018-12-23T11:22:08.434Z,82.50
2018-12-23T11:25:39.047Z,81.80
2018-12-23T11:28:25.347Z,81.90
2018-12-23T11:31:11.643Z,81.30
2018-12-23T11:33:57.905Z,82.00
2018-12-23T11:36:43.087Z,83.40
2018-12-23T11:39:29.394Z,82.80
2018-12-23T11:42:14.510Z,81.00
2018-12-23T11:45:01.014Z,80.90
2018-12-23T11:47:47.458Z,80.50
2018-12-23T11:50:33.748Z,81.20
2018-12-23T11:56:05.092Z,80.70
2018-12-23T11:58:51.456Z,81.20
2018-12-23T12:01:37.855Z,80.20
2018-12-23T12:04:21.944Z,79.80
2018-12-23T12:07:08.376Z,80.50
2018-12-23T12:09:54.668Z,80.10
2018-12-23T12:15:26.120Z,80.80
2018-12-23T12:18:12.569Z,82.20
2018-12-23T12:20:57.670Z,81.00
2018-12-23T12:23:43.924Z,80.60
2018-12-23T12:26:29.042Z,79.50
2018-12-23T12:29:15.468Z,81.50
2018-12-23T12:32:00.659Z,80.00
2018-12-23T12:34:46.978Z,80.60
2018-12-23T12:37:32.108Z,81.10
2018-12-23T12:40:18.498Z,80.00
2018-12-23T12:43:03.662Z,79.60
2018-12-23T12:45:50.034Z,79.70
2018-12-23T12:48:37.942Z,78.60
2018-12-23T12:51:23.086Z,77.90
2018-12-23T12:57:03.270Z,78.10
2018-12-23T12:59:49.622Z,78.00
2018-12-23T13:02:35.839Z,78.80
2018-12-23T13:05:22.226Z,79.70
2018-12-23T13:08:07.996Z,79.80
2018-12-23T13:10:54.234Z,80.10
2018-12-23T13:13:40.518Z,79.90
2018-12-23T13:16:26.914Z,79.90
2018-12-23T13:19:14.846Z,79.80
2018-12-23T13:21:59.992Z,79.70
2018-12-23T13:24:46.210Z,78.40
2018-12-23T13:27:32.549Z,79.50
2018-12-23T13:30:18.939Z,79.30
2018-12-23T13:33:05.346Z,79.00
2018-12-23T13:35:51.718Z,79.00
2018-12-23T13:38:37.951Z,79.40
2018-12-23T13:41:22.114Z,79.00
2018-12-23T13:44:08.542Z,78.50
2018-12-23T13:46:54.908Z,78.10
2018-12-23T13:49:41.322Z,79.40
2018-12-23T13:52:27.803Z,78.50
2018-12-23T13:55:14.219Z,78.90
2018-12-23T13:58:00.550Z,79.80
2018-12-23T14:00:46.833Z,78.30
2018-12-23T14:03:33.127Z,79.10
2018-12-23T14:06:19.621Z,79.70
2018-12-23T14:09:04.582Z,78.90
2018-12-23T14:11:50.043Z,79.70
2018-12-23T14:14:36.148Z,78.60
2018-12-23T14:17:21.863Z,79.30
2018-12-23T14:20:08.669Z,80.20
2018-12-23T14:22:55.406Z,80.70
2018-12-23T14:25:42.337Z,82.70
2018-12-23T14:28:28.624Z,84.20
2018-12-23T14:31:16.735Z,85.10
2018-12-23T14:34:25.019Z,86.70
2018-12-23T14:37:18.566Z,87.90
2018-12-23T14:40:05.466Z,88.70
2018-12-23T14:42:51.903Z,89.30
2018-12-23T14:45:37.331Z,90.20
2018-12-23T14:48:24.185Z,90.90
2018-12-23T14:51:09.475Z,91.30
2018-12-23T14:53:53.820Z,92.00
2018-12-23T14:56:38.259Z,92.30
2018-12-23T14:59:22.523Z,92.40
2018-12-23T15:02:09.089Z,93.10
2018-12-23T15:04:55.899Z,93.40
2018-12-23T15:07:42.687Z,93.60
2018-12-23T15:10:30.934Z,93.60
2018-12-23T15:16:03.033Z,94.70
2018-12-23T15:18:49.733Z,94.30
2018-12-23T15:21:35.091Z,94.70
2018-12-23T15:24:21.804Z,94.20
2018-12-23T15:27:08.223Z,94.40
2018-12-23T15:29:56.238Z,95.10
2018-12-23T15:32:42.671Z,95.10
2018-12-23T15:35:28.940Z,94.90
2018-12-23T15:38:16.918Z,95.20
2018-12-23T15:41:01.099Z,94.90
2018-12-23T15:43:48.011Z,94.90
2018-12-23T15:46:34.267Z,95.00
2018-12-23T15:49:20.539Z,95.60
2018-12-23T15:52:06.827Z,95.40
2018-12-23T15:54:57.714Z,96.00
2018-12-23T15:57:45.035Z,96.10
2018-12-23T16:00:31.279Z,95.70
2018-12-23T16:03:16.536Z,95.90
2018-12-23T16:06:02.836Z,95.90
2018-12-23T16:08:48.047Z,96.20
2018-12-23T16:11:34.298Z,96.60
2018-12-23T16:14:20.739Z,96.20
2018-12-23T16:17:07.103Z,96.00
2018-12-23T16:19:53.885Z,96.10
2018-12-23T16:22:40.532Z,96.30
2018-12-23T16:25:26.320Z,96.80
2018-12-23T16:28:12.502Z,96.40
2018-12-23T16:30:59.176Z,96.70
2018-12-23T16:39:16.858Z,95.80
2018-12-23T16:42:03.374Z,96.20
2018-12-23T16:44:49.656Z,96.50
2018-12-23T16:47:33.747Z,96.70
2018-12-23T16:50:20.034Z,96.50
2018-12-23T16:53:05.187Z,96.60
2018-12-23T16:55:51.448Z,97.30
2018-12-23T16:58:36.738Z,96.90
2018-12-23T17:01:22.936Z,97.30
2018-12-23T17:04:08.063Z,97.10
2018-12-23T17:06:54.415Z,97.40
2018-12-23T17:09:39.502Z,97.20
2018-12-23T17:12:25.742Z,97.40
2018-12-23T17:15:12.176Z,97.60
2018-12-23T17:17:58.471Z,97.40
2018-12-23T17:20:42.687Z,97.60
2018-12-23T17:23:29.078Z,97.80
2018-12-23T17:26:15.426Z,97.70
2018-12-23T17:29:01.668Z,98.00
2018-12-23T17:31:47.866Z,97.70
2018-12-23T17:34:31.964Z,98.40
2018-12-23T17:37:18.344Z,98.30
2018-12-23T17:40:04.781Z,98.40
2018-12-23T17:42:51.126Z,98.50
2018-12-23T17:45:37.498Z,98.70
2018-12-23T17:48:23.809Z,98.50
2018-12-23T17:51:10.100Z,98.60
2018-12-23T17:53:55.231Z,98.90
2018-12-23T17:56:41.505Z,99.00
2018-12-23T17:59:27.190Z,99.10
2018-12-23T18:02:13.518Z,98.70
2018-12-23T18:04:59.933Z,98.90
2018-12-23T18:07:46.429Z,98.60
2018-12-23T18:10:30.492Z,98.80
2018-12-23T18:13:16.753Z,98.70
2018-12-23T18:16:03.064Z,98.70
2018-12-23T18:18:49.250Z,98.40
2018-12-23T18:24:20.681Z,98.70
2018-12-23T18:27:18.072Z,99.10
2018-12-23T18:30:06.917Z,99.40
2018-12-23T18:32:51.175Z,99.40
2018-12-23T18:35:37.506Z,99.40
2018-12-23T18:38:23.827Z,99.50
2018-12-23T18:41:10.156Z,99.40
2018-12-23T18:43:56.483Z,99.50
2018-12-23T18:46:42.800Z,99.50
2018-12-23T18:49:29.119Z,99.40
2018-12-23T18:52:15.385Z,99.50
2018-12-23T18:55:01.716Z,99.30
2018-12-23T19:00:32.974Z,99.00
2018-12-23T19:03:19.280Z,99.30
2018-12-23T19:06:05.809Z,99.40
2018-12-23T19:08:59.303Z,99.50
2018-12-23T19:11:45.472Z,99.40
2018-12-23T19:14:31.778Z,99.30
2018-12-23T19:17:18.134Z,99.20
2018-12-23T19:20:04.515Z,99.30
2018-12-23T19:22:50.843Z,99.40
2018-12-23T19:25:37.310Z,99.50
2018-12-23T19:28:23.633Z,99.40
2018-12-23T19:31:10.023Z,99.50
2018-12-23T19:33:56.379Z,99.40
2018-12-23T19:36:42.676Z,99.40
2018-12-23T19:39:28.956Z,99.40
2018-12-23T19:42:15.256Z,99.40
2018-12-23T19:45:01.590Z,99.60
2018-12-23T19:47:47.952Z,99.40
2018-12-23T19:50:34.353Z,99.30
2018-12-23T19:53:20.702Z,99.20
2018-12-23T19:56:07.125Z,99.30
2018-12-23T19:58:53.443Z,99.20
2018-12-23T20:01:39.322Z,99.10
2018-12-23T20:04:25.697Z,99.00
2018-12-23T20:07:11.995Z,99.00
2018-12-23T20:09:57.185Z,98.80
2018-12-23T20:12:43.535Z,98.80
2018-12-23T20:15:27.703Z,98.70
2018-12-23T20:18:14.083Z,98.70
2018-12-23T20:21:00.399Z,98.40
2018-12-23T20:23:46.791Z,98.50
2018-12-23T20:26:33.195Z,98.60
2018-12-23T20:29:19.605Z,98.40
2018-12-23T20:32:06.043Z,99.20
2018-12-23T20:40:22.940Z,96.10
2018-12-23T20:43:09.243Z,97.90
2018-12-23T20:45:55.687Z,98.40
2018-12-23T20:48:42.053Z,98.40
2018-12-23T20:51:28.677Z,98.70
2018-12-23T20:54:15.046Z,98.90
2018-12-23T20:57:01.374Z,98.70
2018-12-23T20:59:47.767Z,98.90
2018-12-23T21:02:34.168Z,98.80
2018-12-23T21:05:22.027Z,98.80
2018-12-23T21:08:08.471Z,98.70
2018-12-23T21:10:54.758Z,98.80
2018-12-23T21:13:41.058Z,98.80
2018-12-23T21:16:27.415Z,98.80
2018-12-23T21:19:13.801Z,98.70
2018-12-23T21:22:00.202Z,98.90
2018-12-23T21:24:46.801Z,99.00
2018-12-23T21:27:33.124Z,99.10
2018-12-23T21:35:56.433Z,98.70
2018-12-23T21:38:47.947Z,99.00
2018-12-23T21:41:59.117Z,99.00
2018-12-23T21:45:09.045Z,99.10
2018-12-23T21:48:15.085Z,99.20
2018-12-23T21:51:16.229Z,99.30
2018-12-23T21:54:32.849Z,99.20
2018-12-23T21:57:37.937Z,98.90
2018-12-23T22:00:44.892Z,98.80
2018-12-23T22:03:53.777Z,98.90
2018-12-23T22:07:10.946Z,98.90
2018-12-23T22:10:19.236Z,98.60
2018-12-23T22:13:26.929Z,99.00
2018-12-23T22:15:57.327Z,98.70
2018-12-23T22:18:28.084Z,98.90
2018-12-23T22:20:58.479Z,98.80
2018-12-23T22:23:29.783Z,99.10
2018-12-23T22:26:02.890Z,98.10
2018-12-23T22:28:33.499Z,96.00
2018-12-23T22:31:03.787Z,96.10
2018-12-23T22:33:34.077Z,97.30
2018-12-23T22:36:04.366Z,97.80
2018-12-23T22:38:34.616Z,98.00
2018-12-23T22:41:10.801Z,98.00
2018-12-23T22:43:41.239Z,97.80
2018-12-23T22:46:11.567Z,97.50
2018-12-23T22:48:41.831Z,97.60
2018-12-23T22:51:12.109Z,97.60
2018-12-23T22:53:42.362Z,97.50
2018-12-23T22:56:12.684Z,97.10
2018-12-23T22:58:42.939Z,97.30
2018-12-23T23:01:13.286Z,97.40
2018-12-23T23:03:43.821Z,97.40
2018-12-23T23:06:14.110Z,97.50
2018-12-23T23:08:44.463Z,97.50
2018-12-23T23:11:14.787Z,97.60
2018-12-23T23:13:45.042Z,97.80
2018-12-23T23:16:15.331Z,98.10
2018-12-23T23:18:45.607Z,98.50
2018-12-23T23:21:15.779Z,98.80
2018-12-23T23:23:46.079Z,99.20
2018-12-23T23:26:16.535Z,99.10
2018-12-23T23:28:47.019Z,99.60
2018-12-23T23:31:17.842Z,99.20
2018-12-23T23:33:48.051Z,99.30
2018-12-23T23:36:18.296Z,98.60
2018-12-23T23:38:53.804Z,98.20
2018-12-23T23:41:24.968Z,98.30
2018-12-23T23:43:55.384Z,98.30
2018-12-23T23:46:25.578Z,98.00
2018-12-23T23:48:57.089Z,97.30
2018-12-23T23:51:27.455Z,96.90
2018-12-23T23:53:57.736Z,97.40
2018-12-23T23:56:28.489Z,97.40
2018-12-23T23:58:59.058Z,97.60
